Time;durP1;ratioP1;P1;durP2;ratioP2;P2;SDS_P1;SDS_P2;PMS_P1;PMS_P2;Temp;Humidity;BMP_temperature;BMP_pressure;BME280_temperature;BME280_humidity;BME280_pressure;Samples;Min_cycle;Max_cycle;Signal;HPM_P1;HPM_P2
2022/06/07 00:00:05;;;;;;;30.43;17.97;;;;;;;12.03;100.00;101247.84;4974493;28;20034;-86
2022/06/07 00:02:33;;;;;;;27.30;17.50;;;;;;;11.97;100.00;101238.91;4972679;28;20019;-86
2022/06/07 00:04:59;;;;;;;33.53;18.10;;;;;;;12.02;100.00;101248.94;4973533;28;20041;-86
2022/06/07 00:07:26;;;;;;;31.42;18.15;;;;;;;12.05;100.00;101237.66;4983348;28;20046;-86
2022/06/07 00:09:52;;;;;;;30.85;18.33;;;;;;;12.09;100.00;101239.56;4973818;28;20035;-86
2022/06/07 00:12:17;;;;;;;32.22;18.08;;;;;;;12.12;100.00;101232.88;4974570;28;20035;-86
2022/06/07 00:14:49;;;;;;;29.47;17.13;;;;;;;12.16;100.00;101233.16;4974283;28;20022;-87
2022/06/07 00:17:15;;;;;;;28.95;16.85;;;;;;;12.18;100.00;101231.84;4972306;28;20438;-86
2022/06/07 00:19:40;;;;;;;30.25;17.35;;;;;;;12.18;100.00;101231.84;4974261;28;20030;-87
2022/06/07 00:22:07;;;;;;;29.70;17.17;;;;;;;12.16;100.00;101227.78;4971974;28;20636;-87
2022/06/07 00:24:33;;;;;;;31.50;17.17;;;;;;;12.14;100.00;101225.38;4973672;28;20033;-87
2022/06/07 00:26:58;;;;;;;29.60;17.65;;;;;;;12.03;100.00;101211.06;4973303;28;20042;-87
2022/06/07 00:29:25;;;;;;;31.40;18.53;;;;;;;12.00;100.00;101208.09;4972685;28;20033;-87
2022/06/07 00:31:51;;;;;;;34.50;19.92;;;;;;;12.06;100.00;101215.09;4972762;28;20027;-87
2022/06/07 00:34:17;;;;;;;38.83;20.45;;;;;;;12.00;100.00;101208.88;4973896;28;20039;-87
2022/06/07 00:36:43;;;;;;;34.33;19.40;;;;;;;12.00;100.00;101202.72;4971418;28;20093;-88
2022/06/07 00:39:08;;;;;;;32.70;19.83;;;;;;;11.86;100.00;101184.34;4971018;28;20302;-87
2022/06/07 00:41:35;;;;;;;33.87;19.43;;;;;;;12.04;100.00;101199.25;4971992;28;20026;-87
2022/06/07 00:44:24;;;;;;;36.30;20.23;;;;;;;12.06;100.00;101207.03;4973799;28;20029;-87
2022/06/07 00:46:54;;;;;;;36.22;21.83;;;;;;;12.01;100.00;101189.00;4971979;28;20031;-87
2022/06/07 00:49:21;;;;;;;34.60;21.05;;;;;;;12.08;100.00;101205.72;4972283;28;20026;-87
2022/06/07 00:51:46;;;;;;;39.42;21.70;;;;;;;12.08;100.00;101199.53;4972928;28;20127;-87
2022/06/07 00:54:28;;;;;;;33.43;19.70;;;;;;;12.11;100.00;101201.69;4973037;28;20031;-87
2022/06/07 00:56:54;;;;;;;32.15;19.38;;;;;;;12.04;100.00;101191.19;4969253;28;20062;-87
2022/06/07 00:59:20;;;;;;;37.15;20.33;;;;;;;12.01;100.00;101188.22;4972835;28;20102;-87
2022/06/07 01:01:46;;;;;;;35.70;19.33;;;;;;;11.94;100.00;101191.91;4972151;28;20126;-87
2022/06/07 01:04:11;;;;;;;30.83;19.23;;;;;;;11.85;100.00;101177.34;4972216;28;20035;-86
2022/06/07 02:15:33;;;;;;;14.73;9.57;;;;;;;11.74;100.00;101140.72;3324936;22;20078;-87
2022/06/07 02:17:58;;;;;;;13.00;8.57;;;;;;;11.71;100.00;101143.94;4987791;28;20360;-87
2022/06/07 02:36:00;;;;;;;13.13;8.05;;;;;;;11.47;100.00;101112.09;5050266;23;20065;-88
2022/06/07 02:38:32;;;;;;;12.57;7.75;;;;;;;11.54;100.00;101106.50;4983033;28;20031;-89
2022/06/07 02:41:10;;;;;;;11.10;7.60;;;;;;;11.71;100.00;101125.97;4972462;28;20418;-88
2022/06/07 02:43:35;;;;;;;12.00;7.30;;;;;;;11.71;100.00;101125.13;4972573;28;20026;-88
2022/06/07 02:46:01;;;;;;;14.80;7.07;;;;;;;11.74;100.00;101132.69;4971568;28;20039;-89
2022/06/07 02:48:26;;;;;;;12.83;7.23;;;;;;;11.76;100.00;101128.69;4971720;28;20045;-89
2022/06/07 02:50:54;;;;;;;13.77;6.77;;;;;;;11.76;100.00;101130.53;4969576;28;20293;-88
2022/06/07 02:53:21;;;;;;;9.82;6.55;;;;;;;11.76;100.00;101127.88;4971181;28;20074;-88
2022/06/07 02:55:47;;;;;;;11.90;6.73;;;;;;;11.74;100.00;101132.69;4968254;28;20063;-87
2022/06/07 02:58:12;;;;;;;17.03;7.37;;;;;;;11.74;100.00;101130.81;4972607;28;20337;-89
2022/06/07 03:00:37;;;;;;;12.07;6.57;;;;;;;11.74;100.00;101125.44;4972915;28;20482;-88
2022/06/07 03:03:04;;;;;;;9.60;6.27;;;;;;;11.76;100.00;101126.00;4975982;28;20527;-88
2022/06/07 03:05:30;;;;;;;13.50;6.45;;;;;;;11.75;100.00;101123.56;4975404;28;20476;-87
2022/06/07 03:07:55;;;;;;;13.07;6.18;;;;;;;11.72;100.00;101121.38;4974901;28;20030;-87
2022/06/07 03:10:21;;;;;;;13.93;5.93;;;;;;;11.77;100.00;101116.06;4973835;28;20497;-87
2022/06/07 03:12:47;;;;;;;13.27;5.93;;;;;;;11.72;100.00;101124.06;4972254;28;20039;-87
2022/06/07 03:15:13;;;;;;;11.83;5.83;;;;;;;11.69;100.00;101132.63;4975822;28;20023;-87
2022/06/07 03:17:39;;;;;;;10.25;5.78;;;;;;;11.70;100.00;101147.66;4973384;28;20027;-87
2022/06/07 03:20:06;;;;;;;8.73;5.95;;;;;;;11.70;100.00;101140.44;4973968;28;20418;-87
2022/06/07 03:22:32;;;;;;;9.13;6.07;;;;;;;11.67;100.00;101135.59;4975177;28;20567;-88
2022/06/07 03:25:05;;;;;;;7.73;5.70;;;;;;;11.72;100.00;101145.53;4974432;28;20328;-87
2022/06/07 03:27:35;;;;;;;8.50;6.10;;;;;;;11.70;100.00;101147.66;4974719;28;20081;-87
2022/06/07 03:30:01;;;;;;;10.65;5.78;;;;;;;11.72;100.00;101154.44;4973720;28;20062;-87
2022/06/07 03:32:38;;;;;;;10.95;5.70;;;;;;;11.71;100.00;101149.28;4973760;28;20030;-85
2022/06/07 03:35:03;;;;;;;15.02;5.53;;;;;;;11.64;100.00;101149.50;4975357;28;20069;-89
2022/06/07 03:37:31;;;;;;;8.00;5.30;;;;;;;11.68;100.00;101149.84;4972003;28;20058;-88
2022/06/07 03:43:05;;;;;;;10.00;4.82;;;;;;;11.66;100.00;101153.59;4957232;28;20605;-90
2022/06/07 03:45:30;;;;;;;10.73;5.50;;;;;;;11.66;100.00;101153.59;4993428;28;20034;-90
2022/06/07 03:48:36;;;;;;;8.63;5.40;;;;;;;11.70;100.00;101158.41;5020680;23;20097;-90
2022/06/07 03:51:31;;;;;;;7.00;5.35;;;;;;;11.59;100.00;101146.81;4993074;28;20061;-92
2022/06/07 03:54:06;;;;;;;11.70;5.03;;;;;;;11.65;100.00;101148.44;4973633;28;20415;-93
2022/06/07 03:56:47;;;;;;;10.43;5.45;;;;;;;11.51;100.00;101130.09;4977191;28;20584;-90
2022/06/07 04:00:08;;;;;;;12.40;5.43;;;;;;;11.77;100.00;101172.44;5015632;23;20443;-94
2022/06/07 04:02:37;;;;;;;11.13;5.10;;;;;;;11.65;100.00;101148.44;4974815;28;20328;-91
2022/06/07 04:05:08;;;;;;;9.63;5.57;;;;;;;11.64;100.00;101146.84;4991993;28;20019;-90
2022/06/07 04:18:05;;;;;;;5.47;4.65;;;;;;;11.77;100.00;101156.31;5309648;23;20025;-91
2022/06/07 04:20:36;;;;;;;10.20;5.93;;;;;;;11.71;99.98;101151.97;4996886;28;20041;-91
2022/06/07 04:23:06;;;;;;;8.48;5.88;;;;;;;11.85;99.94;101169.28;4996305;28;20034;-91
2022/06/07 04:25:36;;;;;;;12.37;5.97;;;;;;;11.85;100.00;101161.22;4994996;28;20033;-91
2022/06/07 04:28:02;;;;;;;11.97;5.87;;;;;;;11.92;99.98;101163.69;4994236;28;20290;-90
2022/06/07 04:30:27;;;;;;;8.57;5.75;;;;;;;11.91;99.94;101157.50;4976826;28;20556;-90
2022/06/07 04:32:53;;;;;;;10.67;5.63;;;;;;;12.04;99.43;101174.28;4962216;28;20038;-89
2022/06/07 04:35:18;;;;;;;9.55;5.70;;;;;;;12.01;98.64;101167.53;4971269;28;20415;-90
2022/06/07 04:37:48;;;;;;;10.37;5.77;;;;;;;12.12;99.33;101176.47;4968696;28;20026;-90
2022/06/07 04:40:15;;;;;;;13.70;6.18;;;;;;;12.15;99.00;101162.50;4969637;28;20030;-90
2022/06/07 04:42:41;;;;;;;8.30;6.07;;;;;;;12.21;98.76;101166.84;4959258;28;20035;-89
2022/06/07 04:45:14;;;;;;;7.03;5.80;;;;;;;12.32;97.47;101167.72;4974929;28;20649;-89
2022/06/07 04:47:40;;;;;;;10.43;6.10;;;;;;;12.43;97.22;101171.25;4976292;28;20301;-90
2022/06/07 04:50:06;;;;;;;9.18;5.85;;;;;;;12.49;96.50;101175.56;4978120;28;20480;-92
2022/06/07 04:52:31;;;;;;;9.15;5.60;;;;;;;12.53;96.20;101168.63;4967237;28;20027;-91
2022/06/07 04:54:57;;;;;;;9.10;6.17;;;;;;;12.59;95.84;101168.66;4956849;28;20043;-91
2022/06/07 04:57:22;;;;;;;11.57;6.10;;;;;;;12.67;95.31;101168.13;4972566;28;20023;-92
2022/06/07 04:59:48;;;;;;;10.20;5.73;;;;;;;12.78;94.77;101188.59;4974971;28;20027;-88
2022/06/07 05:02:14;;;;;;;9.07;6.47;;;;;;;12.84;93.78;101179.47;4971446;28;20470;-92
2022/06/07 05:04:39;;;;;;;9.68;6.28;;;;;;;12.95;94.75;101184.91;4974348;28;20042;-90
2022/06/07 05:07:07;;;;;;;12.07;5.97;;;;;;;12.85;92.93;101162.25;4965154;28;20023;-89
2022/06/07 05:09:33;;;;;;;14.55;5.95;;;;;;;13.00;92.95;101183.03;4972164;28;20033;-90
2022/06/07 05:11:58;;;;;;;9.75;5.60;;;;;;;13.02;93.35;101175.50;4969901;28;20025;-91
2022/06/07 05:14:24;;;;;;;11.20;6.13;;;;;;;13.16;92.78;101191.91;4972726;28;20061;-91
2022/06/07 05:16:52;;;;;;;10.40;6.10;;;;;;;13.28;92.09;101193.56;4962426;28;20023;-90
2022/06/07 05:19:19;;;;;;;11.40;6.03;;;;;;;13.30;91.14;101186.84;5474920;23;20074;-89
2022/06/07 05:21:45;;;;;;;11.40;6.30;;;;;;;13.47;91.58;101208.16;4992348;28;20038;-92
2022/06/07 05:24:11;;;;;;;10.25;6.10;;;;;;;13.48;89.56;101198.19;4992252;28;20042;-90
2022/06/07 05:26:48;;;;;;;7.72;5.50;;;;;;;13.44;90.48;101208.69;4991502;28;20046;-90
2022/06/07 05:29:29;;;;;;;11.13;5.45;;;;;;;13.46;90.78;101206.53;4991794;28;20501;-90
2022/06/07 05:31:54;;;;;;;8.05;5.82;;;;;;;13.52;90.00;101209.22;4979193;28;20043;-91
2022/06/07 05:34:20;;;;;;;12.83;5.97;;;;;;;13.56;91.30;101208.44;4973182;28;20502;-92
2022/06/07 05:36:45;;;;;;;12.83;5.63;;;;;;;13.75;89.43;101202.50;4971541;28;20049;-91
2022/06/07 05:39:20;;;;;;;7.45;5.78;;;;;;;13.97;90.01;101204.91;4983292;28;20027;-95
2022/06/07 05:41:45;;;;;;;11.35;6.63;;;;;;;14.09;86.96;101202.72;4965351;28;20050;-92
2022/06/07 05:44:11;;;;;;;10.30;6.40;;;;;;;14.16;86.96;101199.75;4974296;28;20027;-92
2022/06/07 05:46:36;;;;;;;12.87;6.90;;;;;;;14.19;87.76;101201.91;4972043;28;20031;-92
2022/06/07 05:49:03;;;;;;;11.30;7.30;;;;;;;14.27;86.10;101205.13;4979787;28;20042;-94
2022/06/07 05:51:29;;;;;;;9.20;6.97;;;;;;;14.27;86.15;101205.94;4989735;28;20046;-96
2022/06/07 05:53:57;;;;;;;15.37;7.60;;;;;;;14.25;86.31;101205.38;4985273;28;20286;-93
2022/06/07 05:56:22;;;;;;;16.08;7.70;;;;;;;14.27;86.55;101200.53;4966970;28;20035;-95
2022/06/07 05:58:53;;;;;;;12.82;7.40;;;;;;;14.22;85.71;101201.38;4954781;28;20406;-93
2022/06/07 06:01:18;;;;;;;14.17;7.90;;;;;;;14.15;86.40;101208.91;4961085;28;20078;-95
2022/06/07 06:03:46;;;;;;;11.63;7.40;;;;;;;14.13;86.94;101203.00;4977047;28;20694;-95
2022/06/07 06:06:12;;;;;;;15.15;7.15;;;;;;;14.14;87.66;101204.63;4975084;28;20025;-92
2022/06/07 06:11:25;;;;;;;16.60;7.33;;;;;;;14.45;87.39;101214.50;4993466;28;20073;-90
2022/06/07 06:13:50;;;;;;;12.30;7.87;;;;;;;14.73;86.67;101217.69;4977980;28;20341;-90
2022/06/07 06:16:20;;;;;;;14.73;7.32;;;;;;;14.94;85.69;101210.28;4973569;28;20111;-92
2022/06/07 06:18:47;;;;;;;15.88;8.00;;;;;;;15.27;83.77;101206.06;4962077;28;20039;-90
2022/06/07 06:21:14;;;;;;;15.85;9.15;;;;;;;15.38;82.32;101195.19;4969579;28;20023;-90
2022/06/07 06:23:39;;;;;;;20.17;8.80;;;;;;;15.44;82.00;101210.25;4964318;28;20030;-89
2022/06/07 06:26:09;;;;;;;15.77;8.30;;;;;;;15.48;82.92;101208.63;4988831;28;20073;-89
2022/06/07 06:29:21;;;;;;;;;;;;;;;;;;;;;
2022/06/07 06:36:00;;;;;;;15.05;8.10;;;;;;;16.66;82.33;101176.09;4933335;29;20042;-91
2022/06/07 06:39:06;;;;;;;;;;;;;;;;;;;;;
2022/06/07 06:45:20;;;;;;;13.65;8.02;;;;;;;16.88;78.28;101194.50;4894708;29;20571;-86
2022/06/07 06:47:47;;;;;;;14.57;8.17;;;;;;;16.80;77.14;101184.31;4875661;29;20033;-87
2022/06/07 06:50:15;;;;;;;14.17;7.83;;;;;;;16.95;76.80;101216.59;4885568;29;20352;-88
2022/06/07 06:52:40;;;;;;;15.93;8.60;;;;;;;16.90;77.59;101213.94;4889766;29;20040;-87
2022/06/07 06:55:07;;;;;;;14.40;8.83;;;;;;;16.84;77.37;101209.69;4910959;28;20025;-88
2022/06/07 06:57:32;;;;;;;14.27;8.27;;;;;;;17.04;77.29;101216.75;4992911;28;20385;-89
2022/06/07 06:59:57;;;;;;;15.17;8.50;;;;;;;17.17;76.75;101209.81;4976441;28;20035;-92
2022/06/07 07:02:23;;;;;;;12.60;8.30;;;;;;;17.41;76.22;101214.34;4961770;28;20806;-89
2022/06/07 07:04:48;;;;;;;13.13;7.87;;;;;;;17.76;74.68;101227.59;4978773;28;20069;-89
2022/06/07 07:33:09;;;;;;;13.00;9.20;;;;;;;18.24;73.05;101226.50;4981996;28;20065;-88
2022/06/07 07:35:34;;;;;;;14.77;9.82;;;;;;;18.57;72.92;101212.84;4952267;23;20430;-88
2022/06/07 07:38:00;;;;;;;14.15;9.20;;;;;;;18.82;71.02;101218.84;4945441;29;20025;-89
2022/06/07 07:40:26;;;;;;;12.80;9.57;;;;;;;19.12;70.74;101228.28;4954460;29;20113;-87
2022/06/07 07:42:52;;;;;;;16.83;10.03;;;;;;;19.30;69.43;101229.22;4935934;29;20031;-89
2022/06/07 07:56:25;;;;;;;16.25;9.02;;;;;;;20.16;65.42;101221.16;3208201;23;20494;-87
2022/06/07 07:59:00;;;;;;;18.13;9.75;;;;;;;20.06;65.73;101215.97;4994264;28;20117;-85
2022/06/07 08:01:28;;;;;;;16.80;10.55;;;;;;;20.06;66.03;101216.78;4990428;28;20393;-89
2022/06/07 08:03:57;;;;;;;16.60;10.60;;;;;;;19.86;66.54;101217.28;5011172;28;20403;-90
2022/06/07 08:06:52;;;;;;;17.20;10.50;;;;;;;19.97;66.48;101214.03;4997921;23;20081;-90
2022/06/07 08:38:48;;;;;;;14.75;9.93;;;;;;;21.06;62.13;101199.28;4889344;29;20172;-90
2022/06/07 08:57:45;;;;;;;16.38;10.90;;;;;;;20.21;64.26;101184.84;5104437;23;20073;-90
2022/06/07 09:00:36;;;;;;;13.68;10.05;;;;;;;20.72;63.00;101188.00;5014434;28;20065;-88
2022/06/07 09:09:18;;;;;;;11.38;8.05;;;;;;;21.02;60.04;101185.50;5418636;23;20085;-88
2022/06/07 09:12:20;;;;;;;10.77;8.80;;;;;;;21.54;57.90;101211.91;5013503;28;20117;-89
2022/06/07 10:19:24;;;;;;;;;;;;;;;;;;;;;
2022/06/07 10:22:36;;;;;;;8.63;5.60;;;;;;;22.07;55.09;101182.56;4973164;28;20049;-89
2022/06/07 10:25:23;;;;;;;6.63;5.38;;;;;;;21.85;55.01;101169.19;4952724;29;20372;-91
2022/06/07 10:35:14;;;;;;;9.00;4.32;;;;;;;22.11;52.52;101173.75;4972562;28;20037;-89
2022/06/07 10:38:35;;;;;;;6.43;4.20;;;;;;;22.32;52.97;101171.88;4974066;28;20625;-90
2022/06/07 10:41:39;;;;;;;7.05;4.22;;;;;;;22.31;51.59;101173.00;4954111;29;20493;-90
2022/06/07 10:45:04;;;;;;;9.60;3.97;;;;;;;22.35;50.74;101178.59;4954363;29;20047;-91
2022/06/07 11:12:33;;;;;;;5.57;2.97;;;;;;;23.19;49.49;101153.25;5015049;28;20068;-89
2022/06/07 11:15:23;;;;;;;4.80;2.90;;;;;;;23.17;50.78;101157.47;4999489;28;20078;-91
2022/06/07 11:22:04;;;;;;;4.05;2.42;;;;;;;23.04;49.61;101160.13;4994146;28;20418;-91
2022/06/07 11:32:05;;;;;;;5.63;2.30;;;;;;;24.39;47.00;101159.94;4934898;29;20062;-90
2022/06/07 11:38:56;;;;;;;;;;;;;;;;;;;;;
2022/06/07 11:48:38;;;;;;;3.77;1.70;;;;;;;25.70;43.71;101163.22;4831406;29;20070;-90
2022/06/07 11:51:36;;;;;;;5.53;1.97;;;;;;;25.08;44.10;101125.16;4841968;29;20328;-86
2022/06/07 11:58:04;;;;;;;4.05;2.10;;;;;;;24.68;45.55;101145.16;4857669;29;20152;-88
2022/06/07 12:11:41;;;;;;;7.10;2.10;;;;;;;25.61;44.79;101139.84;4810975;29;20457;-91
2022/06/07 12:14:40;;;;;;;3.50;2.15;;;;;;;25.96;41.19;101139.13;4818130;29;20088;-86
2022/06/07 12:18:06;;;;;;;4.15;1.80;;;;;;;25.57;42.85;101138.94;4895153;29;20045;-87
2022/06/07 12:21:11;;;;;;;1.83;1.67;;;;;;;24.87;45.00;101125.34;4844553;29;20513;-86
2022/06/07 12:26:39;;;;;;;3.92;1.92;;;;;;;24.79;46.32;101151.75;4888356;29;20194;-86
2022/06/07 12:33:41;;;;;;;6.68;2.65;;;;;;;25.15;46.95;101138.25;4944640;28;20027;-87
2022/06/07 12:36:21;;;;;;;2.80;2.05;;;;;;;24.89;46.26;101133.25;4936044;29;20044;-86
2022/06/07 12:38:51;;;;;;;3.33;2.05;;;;;;;24.58;46.69;101121.78;4970731;28;20027;-85
2022/06/07 12:41:25;;;;;;;2.95;1.67;;;;;;;24.73;47.36;101136.72;4940246;28;20034;-85
2022/06/07 12:43:56;;;;;;;3.22;2.10;;;;;;;25.14;47.20;101138.59;4988335;28;20088;-86
2022/06/07 12:46:27;;;;;;;4.68;2.13;;;;;;;25.60;45.42;101138.25;4992470;28;20128;-86
2022/06/07 12:48:55;;;;;;;5.30;2.07;;;;;;;25.66;43.76;101142.34;4992688;28;20066;-86
2022/06/07 12:51:28;;;;;;;3.60;2.03;;;;;;;25.76;44.95;101128.06;4992053;28;20281;-85
2022/06/07 12:54:01;;;;;;;4.05;2.03;;;;;;;25.45;45.83;101131.63;4989226;28;20023;-86
2022/06/07 12:56:29;;;;;;;5.00;2.25;;;;;;;24.94;46.08;101136.53;4989659;28;20056;-86
2022/06/07 12:58:57;;;;;;;4.80;2.38;;;;;;;24.41;46.60;101136.53;4974028;28;20421;-85
2022/06/07 13:01:39;;;;;;;4.55;2.20;;;;;;;23.95;48.75;101131.19;4988268;28;20029;-86
2022/06/07 13:10:58;;;;;;;6.13;3.60;;;;;;;22.46;51.21;101130.69;4985870;23;20078;-90
2022/06/07 13:13:27;;;;;;;5.00;3.63;;;;;;;22.27;52.59;101135.78;4993231;28;20022;-87
2022/06/07 13:15:58;;;;;;;5.78;3.38;;;;;;;22.38;53.93;101134.25;5043015;23;20050;-87
2022/06/07 13:22:23;;;;;;;5.03;2.72;;;;;;;22.47;53.02;101094.06;5003549;28;20386;-89
2022/06/07 13:27:43;;;;;;;8.65;3.20;;;;;;;22.61;53.84;101101.22;6010542;23;20018;-88
2022/06/07 13:30:22;;;;;;;3.75;3.42;;;;;;;22.36;53.26;101120.94;4992152;28;20081;-88
2022/06/07 13:39:07;;;;;;;10.27;3.78;;;;;;;22.11;56.06;101113.72;5011992;28;20137;-90
2022/06/07 13:42:20;;;;;;;;;;;;;;;;;;;;;
2022/06/07 14:00:39;;;;;;;3.30;2.50;;;;;;;23.66;52.92;101088.41;5586811;23;20566;-88
2022/06/07 14:03:51;;;;;;;4.03;2.70;;;;;;;24.19;52.18;101110.44;4974365;28;20034;-88
2022/06/07 14:10:50;;;;;;;;;;;;;;;;;;;;;
2022/06/07 14:48:36;;;;;;;4.97;3.42;;;;;;;23.99;51.00;101093.81;6109107;23;20024;-87
2022/06/07 14:51:15;;;;;;;5.00;4.10;;;;;;;24.30;50.23;101091.59;4965340;28;20088;-87
2022/06/07 14:53:41;;;;;;;7.85;3.95;;;;;;;24.62;49.75;101083.53;4950129;29;20507;-86
2022/06/07 14:56:19;;;;;;;10.83;4.87;;;;;;;24.68;48.87;101086.81;4937574;28;20028;-87
2022/06/07 14:58:45;;;;;;;7.07;3.83;;;;;;;24.89;49.84;101081.97;4936640;29;20043;-87
2022/06/07 15:01:20;;;;;;;4.57;3.50;;;;;;;24.91;48.98;101093.38;4935271;29;20448;-86
2022/06/07 15:27:14;;;;;;;5.88;4.30;;;;;;;25.67;46.98;101069.84;4842823;29;20436;-87
2022/06/07 16:09:32;;;;;;;6.00;5.40;;;;;;;24.08;49.23;101068.28;4991459;28;20297;-95
2022/06/07 16:34:17;;;;;;;7.60;6.80;;;;;;;22.73;51.44;101054.03;2559633;22;20050;-89
2022/06/07 16:57:42;;;;;;;14.68;11.77;;;;;;;21.03;58.46;101061.78;5018087;28;20071;-89
2022/06/07 17:51:52;;;;;;;14.75;11.85;;;;;;;19.88;67.51;101070.97;5003809;28;20130;-89
2022/06/07 18:16:25;;;;;;;13.25;10.63;;;;;;;19.71;68.43;101079.84;5016649;28;20050;-88
2022/06/07 18:18:54;;;;;;;15.82;11.50;;;;;;;19.75;69.52;101087.03;5020916;28;20033;-88
2022/06/07 18:21:21;;;;;;;12.85;11.30;;;;;;;19.85;68.57;101088.69;5032119;28;20029;-87
2022/06/07 19:21:49;;;;;;;21.67;17.20;;;;;;;16.25;93.96;101068.47;5153600;22;20308;-86
2022/06/07 19:27:29;;;;;;;29.65;21.77;;;;;;;15.99;97.48;101076.88;5441951;22;20152;-84
2022/06/07 19:33:11;;;;;;;39.35;27.25;;;;;;;15.95;100.00;101108.25;4935948;29;20545;-88
2022/06/07 19:35:44;;;;;;;39.25;27.35;;;;;;;15.83;100.00;101101.34;4957318;29;20047;-87
2022/06/07 19:38:24;;;;;;;40.45;29.55;;;;;;;15.68;100.00;101101.50;4993050;28;20116;-87
2022/06/07 19:41:28;;;;;;;36.13;27.80;;;;;;;15.75;100.00;101120.88;4990576;28;20375;-88
2022/06/07 19:56:52;;;;;;;30.50;20.33;;;;;;;15.35;100.00;101090.44;5119580;22;20115;-89
2022/06/07 19:59:17;;;;;;;29.73;19.75;;;;;;;15.57;100.00;101130.50;5009201;28;20049;-88
2022/06/07 20:27:36;;;;;;;28.10;19.90;;;;;;;14.69;100.00;101115.75;5515210;22;20313;-85
2022/06/07 20:30:03;;;;;;;31.25;20.02;;;;;;;14.57;100.00;101115.25;5009898;28;20034;-85
2022/06/07 21:06:35;;;;;;;35.20;22.30;;;;;;;13.76;100.00;101102.59;6129052;22;20177;-85
2022/06/07 21:09:01;;;;;;;35.73;22.43;;;;;;;13.69;100.00;101099.38;5010894;28;20030;-85
2022/06/07 21:11:26;;;;;;;34.90;21.83;;;;;;;13.63;100.00;101103.94;5570879;22;20470;-86
2022/06/07 21:38:18;;;;;;;37.65;21.70;;;;;;;13.26;100.00;101082.69;5046394;28;20056;-83
2022/06/07 21:40:45;;;;;;;38.25;21.27;;;;;;;13.16;100.00;101072.75;5029798;28;20102;-82
2022/06/07 21:46:17;;;;;;;44.90;23.27;;;;;;;12.83;100.00;101027.25;5049957;28;20036;-83
2022/06/07 21:49:14;;;;;;;40.33;22.40;;;;;;;13.08;100.00;101074.09;5047688;28;20908;-83
2022/06/07 21:57:36;;;;;;;41.33;21.65;;;;;;;12.79;100.00;101050.38;5049470;28;20428;-82
2022/06/07 22:16:24;;;;;;;44.30;23.02;;;;;;;13.29;100.00;101047.19;5006094;28;20120;-83
2022/06/07 22:19:00;;;;;;;49.13;23.90;;;;;;;13.10;100.00;101007.38;4971253;28;20508;-82
2022/06/07 22:30:52;;;;;;;48.97;23.25;;;;;;;13.48;100.00;101017.81;4988022;28;20054;-83
2022/06/07 22:36:33;;;;;;;49.97;23.87;;;;;;;13.45;100.00;101004.91;5037092;28;20361;-82
2022/06/07 22:46:31;;;;;;;50.22;24.98;;;;;;;13.76;100.00;101029.09;4930232;29;20036;-83
2022/06/07 22:49:09;;;;;;;49.45;25.50;;;;;;;13.43;100.00;100972.06;4911197;29;20036;-83
2022/06/07 23:23:45;;;;;;;47.97;23.80;;;;;;;13.63;100.00;100972.00;5807291;22;20476;-83
2022/06/07 23:26:41;;;;;;;51.60;25.63;;;;;;;13.72;100.00;100999.19;5052937;28;20035;-83
2022/06/07 23:30:03;;;;;;;48.08;23.55;;;;;;;13.70;100.00;100992.47;5052395;28;20056;-81
2022/06/07 23:32:31;;;;;;;48.70;23.40;;;;;;;13.39;100.00;100946.78;5049050;28;20066;-82
2022/06/07 23:34:57;;;;;;;51.20;23.80;;;;;;;13.33;100.00;100940.56;5033511;28;20021;-82
2022/06/07 23:38:05;;;;;;;50.10;23.87;;;;;;;13.40;100.00;100970.75;5032583;28;20296;-82
2022/06/07 23:40:30;;;;;;;53.70;24.33;;;;;;;13.55;100.00;100980.66;4951719;28;20138;-81
2022/06/07 23:43:05;;;;;;;54.90;25.57;;;;;;;13.31;100.00;100953.53;5032092;28;20033;-82
2022/06/07 23:45:31;;;;;;;55.75;26.42;;;;;;;13.31;100.00;100943.56;5033715;28;20021;-83
2022/06/07 23:48:08;;;;;;;52.97;25.98;;;;;;;13.42;100.00;100957.81;5032510;28;20120;-83
2022/06/07 23:50:58;;;;;;;62.00;27.83;;;;;;;13.18;100.00;100919.91;5032887;28;20038;-82
2022/06/07 23:53:30;;;;;;;57.60;26.33;;;;;;;13.12;100.00;100916.44;5018484;28;20029;-82
2022/06/07 23:56:08;;;;;;;53.50;25.20;;;;;;;13.10;100.00;100937.44;5033031;28;20097;-83
2022/06/07 23:58:38;;;;;;;50.97;24.50;;;;;;;13.09;100.00;100946.56;5033195;28;20488;-83
